sensor_id;sensor_type;location;lat;lon;timestamp;P1;durP1;ratioP1;P2;durP2;ratioP2
6642;SDS011;3357;48.050;7.800;2023-07-02T00:01:02;1.73;;;1.63;;
6642;SDS011;3357;48.050;7.800;2023-07-02T00:03:27;1.50;;;1.40;;
6642;SDS011;3357;48.050;7.800;2023-07-02T00:05:52;2.60;;;1.70;;
6642;SDS011;3357;48.050;7.800;2023-07-02T00:08:19;1.70;;;1.60;;
6642;SDS011;3357;48.050;7.800;2023-07-02T00:10:45;1.57;;;1.47;;
6642;SDS011;3357;48.050;7.800;2023-07-02T00:13:10;1.70;;;1.60;;
6642;SDS011;3357;48.050;7.800;2023-07-02T00:15:35;2.03;;;1.93;;
6642;SDS011;3357;48.050;7.800;2023-07-02T00:18:00;1.90;;;1.80;;
6642;SDS011;3357;48.050;7.800;2023-07-02T00:20:26;2.30;;;1.90;;
6642;SDS011;3357;48.050;7.800;2023-07-02T00:22:51;5.73;;;1.87;;
6642;SDS011;3357;48.050;7.800;2023-07-02T00:25:16;2.97;;;1.50;;
6642;SDS011;3357;48.050;7.800;2023-07-02T00:27:41;1.87;;;1.70;;
6642;SDS011;3357;48.050;7.800;2023-07-02T00:30:07;3.77;;;2.10;;
6642;SDS011;3357;48.050;7.800;2023-07-02T00:32:33;1.80;;;1.70;;
6642;SDS011;3357;48.050;7.800;2023-07-02T00:34:58;4.90;;;1.80;;
6642;SDS011;3357;48.050;7.800;2023-07-02T00:37:24;1.73;;;1.63;;
6642;SDS011;3357;48.050;7.800;2023-07-02T00:39:49;3.23;;;1.83;;
6642;SDS011;3357;48.050;7.800;2023-07-02T00:42:14;2.37;;;1.60;;
6642;SDS011;3357;48.050;7.800;2023-07-02T00:44:41;4.63;;;1.80;;
6642;SDS011;3357;48.050;7.800;2023-07-02T00:47:10;2.27;;;2.07;;
6642;SDS011;3357;48.050;7.800;2023-07-02T00:49:36;2.70;;;2.50;;
6642;SDS011;3357;48.050;7.800;2023-07-02T00:52:02;2.00;;;1.90;;
6642;SDS011;3357;48.050;7.800;2023-07-02T00:54:28;2.20;;;2.10;;
6642;SDS011;3357;48.050;7.800;2023-07-02T00:56:54;2.20;;;1.93;;
6642;SDS011;3357;48.050;7.800;2023-07-02T00:59:19;1.97;;;1.73;;
6642;SDS011;3357;48.050;7.800;2023-07-02T01:01:45;2.13;;;2.03;;
6642;SDS011;3357;48.050;7.800;2023-07-02T01:04:16;5.37;;;1.90;;
6642;SDS011;3357;48.050;7.800;2023-07-02T01:06:42;1.83;;;1.73;;
6642;SDS011;3357;48.050;7.800;2023-07-02T01:09:09;2.90;;;1.90;;
6642;SDS011;3357;48.050;7.800;2023-07-02T01:14:26;2.50;;;2.30;;
6642;SDS011;3357;48.050;7.800;2023-07-02T01:16:52;2.17;;;2.00;;
6642;SDS011;3357;48.050;7.800;2023-07-02T01:22:05;2.10;;;2.00;;
6642;SDS011;3357;48.050;7.800;2023-07-02T01:24:31;6.13;;;2.43;;
6642;SDS011;3357;48.050;7.800;2023-07-02T01:26:57;3.90;;;2.13;;
6642;SDS011;3357;48.050;7.800;2023-07-02T01:29:28;3.43;;;2.07;;
6642;SDS011;3357;48.050;7.800;2023-07-02T01:31:54;5.83;;;2.20;;
6642;SDS011;3357;48.050;7.800;2023-07-02T01:34:19;2.13;;;2.03;;
6642;SDS011;3357;48.050;7.800;2023-07-02T01:36:44;2.00;;;1.87;;
6642;SDS011;3357;48.050;7.800;2023-07-02T01:39:10;2.00;;;1.90;;
6642;SDS011;3357;48.050;7.800;2023-07-02T01:44:14;2.03;;;1.80;;
6642;SDS011;3357;48.050;7.800;2023-07-02T01:46:39;2.30;;;2.10;;
6642;SDS011;3357;48.050;7.800;2023-07-02T01:49:04;2.53;;;2.33;;
6642;SDS011;3357;48.050;7.800;2023-07-02T01:51:30;2.53;;;1.70;;
6642;SDS011;3357;48.050;7.800;2023-07-02T01:53:55;2.10;;;2.00;;
6642;SDS011;3357;48.050;7.800;2023-07-02T01:56:20;2.33;;;2.13;;
6642;SDS011;3357;48.050;7.800;2023-07-02T01:58:45;3.23;;;2.10;;
6642;SDS011;3357;48.050;7.800;2023-07-02T02:01:11;3.03;;;2.40;;
6642;SDS011;3357;48.050;7.800;2023-07-02T02:03:36;1.90;;;1.80;;
6642;SDS011;3357;48.050;7.800;2023-07-02T02:06:01;3.80;;;2.50;;
6642;SDS011;3357;48.050;7.800;2023-07-02T02:08:26;2.20;;;2.07;;
6642;SDS011;3357;48.050;7.800;2023-07-02T02:10:52;2.97;;;2.30;;
6642;SDS011;3357;48.050;7.800;2023-07-02T02:13:17;4.90;;;2.00;;
6642;SDS011;3357;48.050;7.800;2023-07-02T02:15:42;3.73;;;2.70;;
6642;SDS011;3357;48.050;7.800;2023-07-02T02:18:07;2.63;;;2.43;;
6642;SDS011;3357;48.050;7.800;2023-07-02T02:20:33;3.10;;;2.13;;
6642;SDS011;3357;48.050;7.800;2023-07-02T02:22:58;2.13;;;1.93;;
6642;SDS011;3357;48.050;7.800;2023-07-02T02:25:23;2.23;;;2.13;;
6642;SDS011;3357;48.050;7.800;2023-07-02T02:27:49;2.50;;;2.30;;
6642;SDS011;3357;48.050;7.800;2023-07-02T02:30:14;2.90;;;2.70;;
6642;SDS011;3357;48.050;7.800;2023-07-02T02:32:39;3.37;;;3.07;;
6642;SDS011;3357;48.050;7.800;2023-07-02T02:35:05;2.80;;;2.53;;
6642;SDS011;3357;48.050;7.800;2023-07-02T02:37:32;3.80;;;1.90;;
6642;SDS011;3357;48.050;7.800;2023-07-02T02:39:58;2.97;;;2.67;;
6642;SDS011;3357;48.050;7.800;2023-07-02T02:42:24;3.23;;;2.33;;
6642;SDS011;3357;48.050;7.800;2023-07-02T02:44:50;2.37;;;2.10;;
6642;SDS011;3357;48.050;7.800;2023-07-02T02:47:15;3.83;;;1.80;;
6642;SDS011;3357;48.050;7.800;2023-07-02T02:49:40;3.00;;;2.40;;
6642;SDS011;3357;48.050;7.800;2023-07-02T02:52:06;3.70;;;2.20;;
6642;SDS011;3357;48.050;7.800;2023-07-02T02:54:31;2.30;;;2.10;;
6642;SDS011;3357;48.050;7.800;2023-07-02T02:56:56;3.03;;;2.73;;
6642;SDS011;3357;48.050;7.800;2023-07-02T02:59:22;3.03;;;2.80;;
6642;SDS011;3357;48.050;7.800;2023-07-02T03:01:47;2.73;;;2.37;;
6642;SDS011;3357;48.050;7.800;2023-07-02T03:04:12;4.93;;;2.90;;
6642;SDS011;3357;48.050;7.800;2023-07-02T03:06:38;5.53;;;2.80;;
6642;SDS011;3357;48.050;7.800;2023-07-02T03:09:04;2.50;;;2.33;;
6642;SDS011;3357;48.050;7.800;2023-07-02T03:11:29;5.23;;;3.00;;
6642;SDS011;3357;48.050;7.800;2023-07-02T03:13:55;2.90;;;2.70;;
6642;SDS011;3357;48.050;7.800;2023-07-02T03:16:20;4.27;;;2.70;;
6642;SDS011;3357;48.050;7.800;2023-07-02T03:18:46;7.83;;;2.90;;
6642;SDS011;3357;48.050;7.800;2023-07-02T03:21:11;4.80;;;2.77;;
6642;SDS011;3357;48.050;7.800;2023-07-02T03:23:37;2.77;;;2.57;;
6642;SDS011;3357;48.050;7.800;2023-07-02T03:26:02;4.50;;;2.73;;
6642;SDS011;3357;48.050;7.800;2023-07-02T03:28:27;2.77;;;2.57;;
6642;SDS011;3357;48.050;7.800;2023-07-02T03:30:52;5.97;;;2.60;;
6642;SDS011;3357;48.050;7.800;2023-07-02T03:33:18;6.93;;;2.90;;
6642;SDS011;3357;48.050;7.800;2023-07-02T03:35:43;4.73;;;3.00;;
6642;SDS011;3357;48.050;7.800;2023-07-02T03:38:08;5.33;;;2.73;;
6642;SDS011;3357;48.050;7.800;2023-07-02T03:40:34;6.20;;;3.03;;
6642;SDS011;3357;48.050;7.800;2023-07-02T03:42:59;8.33;;;3.13;;
6642;SDS011;3357;48.050;7.800;2023-07-02T03:45:24;7.83;;;3.03;;
6642;SDS011;3357;48.050;7.800;2023-07-02T03:47:50;5.57;;;2.80;;
6642;SDS011;3357;48.050;7.800;2023-07-02T03:50:15;7.77;;;3.63;;
6642;SDS011;3357;48.050;7.800;2023-07-02T03:52:40;5.77;;;3.27;;
6642;SDS011;3357;48.050;7.800;2023-07-02T03:55:06;6.50;;;3.07;;
6642;SDS011;3357;48.050;7.800;2023-07-02T03:57:31;7.43;;;2.60;;
6642;SDS011;3357;48.050;7.800;2023-07-02T03:59:57;9.97;;;2.93;;
6642;SDS011;3357;48.050;7.800;2023-07-02T04:02:22;5.50;;;3.40;;
6642;SDS011;3357;48.050;7.800;2023-07-02T04:04:47;4.00;;;3.10;;
6642;SDS011;3357;48.050;7.800;2023-07-02T04:07:12;9.63;;;3.17;;
6642;SDS011;3357;48.050;7.800;2023-07-02T04:09:38;7.80;;;3.70;;
6642;SDS011;3357;48.050;7.800;2023-07-02T04:12:03;11.37;;;3.83;;
6642;SDS011;3357;48.050;7.800;2023-07-02T04:14:29;7.63;;;3.53;;
6642;SDS011;3357;48.050;7.800;2023-07-02T04:16:54;7.00;;;4.03;;
6642;SDS011;3357;48.050;7.800;2023-07-02T04:19:19;12.27;;;4.27;;
6642;SDS011;3357;48.050;7.800;2023-07-02T04:21:44;9.10;;;5.33;;
6642;SDS011;3357;48.050;7.800;2023-07-02T04:24:10;13.93;;;4.77;;
6642;SDS011;3357;48.050;7.800;2023-07-02T04:26:35;10.13;;;5.43;;
6642;SDS011;3357;48.050;7.800;2023-07-02T04:29:01;13.67;;;6.03;;
6642;SDS011;3357;48.050;7.800;2023-07-02T04:31:27;9.07;;;5.47;;
6642;SDS011;3357;48.050;7.800;2023-07-02T04:33:52;13.80;;;5.80;;
6642;SDS011;3357;48.050;7.800;2023-07-02T04:36:18;15.03;;;6.73;;
6642;SDS011;3357;48.050;7.800;2023-07-02T04:38:43;11.33;;;6.60;;
6642;SDS011;3357;48.050;7.800;2023-07-02T04:41:08;9.67;;;6.33;;
6642;SDS011;3357;48.050;7.800;2023-07-02T04:43:35;14.70;;;7.47;;
6642;SDS011;3357;48.050;7.800;2023-07-02T04:46:00;14.97;;;7.10;;
6642;SDS011;3357;48.050;7.800;2023-07-02T04:48:26;19.27;;;8.67;;
6642;SDS011;3357;48.050;7.800;2023-07-02T04:50:52;10.93;;;7.27;;
6642;SDS011;3357;48.050;7.800;2023-07-02T04:53:17;15.80;;;8.40;;
6642;SDS011;3357;48.050;7.800;2023-07-02T04:55:43;20.07;;;8.40;;
6642;SDS011;3357;48.050;7.800;2023-07-02T04:58:08;16.50;;;8.37;;
6642;SDS011;3357;48.050;7.800;2023-07-02T05:00:34;16.67;;;8.60;;
6642;SDS011;3357;48.050;7.800;2023-07-02T05:02:59;24.90;;;8.20;;
6642;SDS011;3357;48.050;7.800;2023-07-02T05:05:24;26.47;;;11.73;;
6642;SDS011;3357;48.050;7.800;2023-07-02T05:07:49;17.93;;;9.60;;
6642;SDS011;3357;48.050;7.800;2023-07-02T05:10:15;15.80;;;8.60;;
6642;SDS011;3357;48.050;7.800;2023-07-02T05:12:40;20.50;;;9.40;;
6642;SDS011;3357;48.050;7.800;2023-07-02T05:15:05;19.23;;;9.50;;
6642;SDS011;3357;48.050;7.800;2023-07-02T05:17:31;17.30;;;10.27;;
6642;SDS011;3357;48.050;7.800;2023-07-02T05:19:59;18.43;;;9.73;;
6642;SDS011;3357;48.050;7.800;2023-07-02T05:22:25;25.73;;;11.43;;
6642;SDS011;3357;48.050;7.800;2023-07-02T05:24:50;23.07;;;11.27;;
6642;SDS011;3357;48.050;7.800;2023-07-02T05:27:16;23.77;;;11.07;;
6642;SDS011;3357;48.050;7.800;2023-07-02T05:29:41;22.00;;;11.13;;
6642;SDS011;3357;48.050;7.800;2023-07-02T05:32:06;22.47;;;10.97;;
6642;SDS011;3357;48.050;7.800;2023-07-02T05:34:32;22.83;;;10.37;;
6642;SDS011;3357;48.050;7.800;2023-07-02T05:36:57;21.70;;;11.90;;
6642;SDS011;3357;48.050;7.800;2023-07-02T05:39:22;24.80;;;11.57;;
6642;SDS011;3357;48.050;7.800;2023-07-02T05:41:48;20.90;;;10.40;;
6642;SDS011;3357;48.050;7.800;2023-07-02T05:44:13;27.50;;;11.03;;
6642;SDS011;3357;48.050;7.800;2023-07-02T05:46:38;27.07;;;11.97;;
6642;SDS011;3357;48.050;7.800;2023-07-02T05:49:04;26.10;;;12.30;;
6642;SDS011;3357;48.050;7.800;2023-07-02T05:51:31;25.20;;;11.30;;
6642;SDS011;3357;48.050;7.800;2023-07-02T05:53:56;18.27;;;10.83;;
6642;SDS011;3357;48.050;7.800;2023-07-02T05:56:21;22.80;;;11.10;;
6642;SDS011;3357;48.050;7.800;2023-07-02T05:58:48;26.57;;;11.27;;
6642;SDS011;3357;48.050;7.800;2023-07-02T06:01:13;30.53;;;12.47;;
6642;SDS011;3357;48.050;7.800;2023-07-02T06:03:39;25.50;;;12.30;;
6642;SDS011;3357;48.050;7.800;2023-07-02T06:06:04;24.87;;;12.30;;
6642;SDS011;3357;48.050;7.800;2023-07-02T06:08:30;21.90;;;11.50;;
6642;SDS011;3357;48.050;7.800;2023-07-02T06:10:55;27.10;;;12.20;;
6642;SDS011;3357;48.050;7.800;2023-07-02T06:13:20;23.87;;;12.13;;
6642;SDS011;3357;48.050;7.800;2023-07-02T06:15:45;28.73;;;12.40;;
6642;SDS011;3357;48.050;7.800;2023-07-02T06:18:12;28.80;;;12.30;;
6642;SDS011;3357;48.050;7.800;2023-07-02T06:20:37;31.90;;;13.37;;
6642;SDS011;3357;48.050;7.800;2023-07-02T06:23:03;27.00;;;11.87;;
6642;SDS011;3357;48.050;7.800;2023-07-02T06:25:28;34.30;;;12.40;;
6642;SDS011;3357;48.050;7.800;2023-07-02T06:27:53;27.43;;;12.13;;
6642;SDS011;3357;48.050;7.800;2023-07-02T06:30:21;29.80;;;13.50;;
6642;SDS011;3357;48.050;7.800;2023-07-02T06:32:46;34.90;;;13.10;;
6642;SDS011;3357;48.050;7.800;2023-07-02T06:35:12;22.80;;;12.73;;
6642;SDS011;3357;48.050;7.800;2023-07-02T06:37:37;27.43;;;12.80;;
6642;SDS011;3357;48.050;7.800;2023-07-02T06:40:03;31.00;;;13.30;;
6642;SDS011;3357;48.050;7.800;2023-07-02T06:42:29;31.77;;;12.50;;
6642;SDS011;3357;48.050;7.800;2023-07-02T06:44:54;38.07;;;13.40;;
6642;SDS011;3357;48.050;7.800;2023-07-02T06:47:19;29.70;;;13.37;;
6642;SDS011;3357;48.050;7.800;2023-07-02T06:49:45;28.67;;;13.33;;
6642;SDS011;3357;48.050;7.800;2023-07-02T06:52:10;26.37;;;13.77;;
6642;SDS011;3357;48.050;7.800;2023-07-02T06:54:35;30.57;;;13.97;;
6642;SDS011;3357;48.050;7.800;2023-07-02T06:57:01;31.37;;;13.77;;
6642;SDS011;3357;48.050;7.800;2023-07-02T06:59:26;33.73;;;12.60;;
6642;SDS011;3357;48.050;7.800;2023-07-02T07:01:51;39.67;;;13.30;;
6642;SDS011;3357;48.050;7.800;2023-07-02T07:04:17;35.67;;;15.20;;
6642;SDS011;3357;48.050;7.800;2023-07-02T07:06:42;30.57;;;13.70;;
6642;SDS011;3357;48.050;7.800;2023-07-02T07:09:08;27.90;;;13.40;;
6642;SDS011;3357;48.050;7.800;2023-07-02T07:11:33;31.83;;;12.97;;
6642;SDS011;3357;48.050;7.800;2023-07-02T07:13:59;27.20;;;13.53;;
6642;SDS011;3357;48.050;7.800;2023-07-02T07:16:24;39.10;;;13.80;;
6642;SDS011;3357;48.050;7.800;2023-07-02T07:18:49;32.07;;;14.00;;
6642;SDS011;3357;48.050;7.800;2023-07-02T07:21:15;29.13;;;13.63;;
6642;SDS011;3357;48.050;7.800;2023-07-02T07:23:40;28.43;;;14.30;;
6642;SDS011;3357;48.050;7.800;2023-07-02T07:26:06;35.13;;;12.90;;
6642;SDS011;3357;48.050;7.800;2023-07-02T07:28:31;31.00;;;14.37;;
6642;SDS011;3357;48.050;7.800;2023-07-02T07:30:56;30.43;;;14.07;;
6642;SDS011;3357;48.050;7.800;2023-07-02T07:33:22;37.83;;;14.37;;
6642;SDS011;3357;48.050;7.800;2023-07-02T07:35:47;31.00;;;15.70;;
6642;SDS011;3357;48.050;7.800;2023-07-02T07:38:13;31.33;;;13.90;;
6642;SDS011;3357;48.050;7.800;2023-07-02T07:40:39;30.50;;;14.00;;
6642;SDS011;3357;48.050;7.800;2023-07-02T07:43:04;35.73;;;15.40;;
6642;SDS011;3357;48.050;7.800;2023-07-02T07:45:30;33.67;;;16.10;;
6642;SDS011;3357;48.050;7.800;2023-07-02T07:47:55;27.93;;;13.93;;
6642;SDS011;3357;48.050;7.800;2023-07-02T07:50:20;28.40;;;13.97;;
6642;SDS011;3357;48.050;7.800;2023-07-02T07:52:46;34.93;;;15.13;;
6642;SDS011;3357;48.050;7.800;2023-07-02T07:55:12;26.70;;;14.87;;
6642;SDS011;3357;48.050;7.800;2023-07-02T07:57:38;30.43;;;15.40;;
6642;SDS011;3357;48.050;7.800;2023-07-02T08:00:03;40.27;;;16.73;;
6642;SDS011;3357;48.050;7.800;2023-07-02T08:02:32;39.37;;;15.80;;
6642;SDS011;3357;48.050;7.800;2023-07-02T08:04:57;31.83;;;14.47;;
6642;SDS011;3357;48.050;7.800;2023-07-02T08:07:22;32.00;;;16.10;;
6642;SDS011;3357;48.050;7.800;2023-07-02T08:09:48;34.00;;;16.13;;
6642;SDS011;3357;48.050;7.800;2023-07-02T08:12:13;34.87;;;16.37;;
6642;SDS011;3357;48.050;7.800;2023-07-02T08:14:38;38.10;;;17.80;;
6642;SDS011;3357;48.050;7.800;2023-07-02T08:17:03;34.47;;;16.97;;
6642;SDS011;3357;48.050;7.800;2023-07-02T08:19:29;36.10;;;17.60;;
6642;SDS011;3357;48.050;7.800;2023-07-02T08:21:54;41.50;;;16.27;;
6642;SDS011;3357;48.050;7.800;2023-07-02T08:24:19;44.57;;;16.67;;
6642;SDS011;3357;48.050;7.800;2023-07-02T08:26:44;34.40;;;16.43;;
6642;SDS011;3357;48.050;7.800;2023-07-02T08:29:10;36.50;;;16.93;;
6642;SDS011;3357;48.050;7.800;2023-07-02T08:31:35;35.30;;;16.50;;
6642;SDS011;3357;48.050;7.800;2023-07-02T08:34:01;32.27;;;16.00;;
6642;SDS011;3357;48.050;7.800;2023-07-02T08:36:26;38.40;;;18.23;;
6642;SDS011;3357;48.050;7.800;2023-07-02T08:38:51;40.73;;;17.57;;
6642;SDS011;3357;48.050;7.800;2023-07-02T08:41:17;40.53;;;17.53;;
6642;SDS011;3357;48.050;7.800;2023-07-02T08:43:42;38.57;;;17.57;;
6642;SDS011;3357;48.050;7.800;2023-07-02T08:46:08;40.80;;;17.57;;
6642;SDS011;3357;48.050;7.800;2023-07-02T08:48:37;37.40;;;17.87;;
6642;SDS011;3357;48.050;7.800;2023-07-02T08:51:02;41.20;;;17.57;;
6642;SDS011;3357;48.050;7.800;2023-07-02T08:53:28;37.87;;;18.13;;
6642;SDS011;3357;48.050;7.800;2023-07-02T08:55:58;37.77;;;17.23;;
6642;SDS011;3357;48.050;7.800;2023-07-02T08:58:27;34.13;;;16.57;;
6642;SDS011;3357;48.050;7.800;2023-07-02T09:03:38;32.97;;;17.23;;
6642;SDS011;3357;48.050;7.800;2023-07-02T09:06:04;40.20;;;18.07;;
6642;SDS011;3357;48.050;7.800;2023-07-02T09:08:30;30.87;;;17.37;;
6642;SDS011;3357;48.050;7.800;2023-07-02T09:16:19;39.10;;;18.67;;
6642;SDS011;3357;48.050;7.800;2023-07-02T09:18:54;31.40;;;16.80;;
6642;SDS011;3357;48.050;7.800;2023-07-02T09:24:17;34.80;;;16.20;;
6642;SDS011;3357;48.050;7.800;2023-07-02T09:26:48;34.37;;;15.20;;
6642;SDS011;3357;48.050;7.800;2023-07-02T09:29:18;45.70;;;15.50;;
6642;SDS011;3357;48.050;7.800;2023-07-02T09:31:47;33.23;;;17.03;;
6642;SDS011;3357;48.050;7.800;2023-07-02T09:34:13;38.30;;;18.50;;
6642;SDS011;3357;48.050;7.800;2023-07-02T09:36:39;40.17;;;18.73;;
6642;SDS011;3357;48.050;7.800;2023-07-02T09:39:11;36.43;;;18.20;;
6642;SDS011;3357;48.050;7.800;2023-07-02T09:41:37;33.40;;;15.63;;
6642;SDS011;3357;48.050;7.800;2023-07-02T09:44:03;32.53;;;16.60;;
6642;SDS011;3357;48.050;7.800;2023-07-02T09:46:28;37.17;;;17.13;;
6642;SDS011;3357;48.050;7.800;2023-07-02T09:48:55;33.97;;;17.30;;
6642;SDS011;3357;48.050;7.800;2023-07-02T09:51:20;32.13;;;17.33;;
6642;SDS011;3357;48.050;7.800;2023-07-02T09:53:46;35.30;;;17.43;;
6642;SDS011;3357;48.050;7.800;2023-07-02T09:56:11;32.93;;;16.37;;
6642;SDS011;3357;48.050;7.800;2023-07-02T09:58:36;34.07;;;17.70;;
6642;SDS011;3357;48.050;7.800;2023-07-02T10:01:02;33.70;;;16.77;;
6642;SDS011;3357;48.050;7.800;2023-07-02T10:03:28;34.60;;;17.30;;
6642;SDS011;3357;48.050;7.800;2023-07-02T10:06:02;32.30;;;16.33;;
6642;SDS011;3357;48.050;7.800;2023-07-02T10:08:29;32.03;;;17.00;;
6642;SDS011;3357;48.050;7.800;2023-07-02T10:11:05;33.13;;;17.33;;
6642;SDS011;3357;48.050;7.800;2023-07-02T10:13:31;36.00;;;16.80;;
6642;SDS011;3357;48.050;7.800;2023-07-02T10:16:00;35.03;;;17.10;;
6642;SDS011;3357;48.050;7.800;2023-07-02T10:18:27;33.13;;;16.80;;
6642;SDS011;3357;48.050;7.800;2023-07-02T10:20:52;37.97;;;16.90;;
6642;SDS011;3357;48.050;7.800;2023-07-02T10:23:17;31.03;;;16.60;;
6642;SDS011;3357;48.050;7.800;2023-07-02T10:25:42;33.30;;;17.20;;
6642;SDS011;3357;48.050;7.800;2023-07-02T10:28:17;34.10;;;15.60;;
6642;SDS011;3357;48.050;7.800;2023-07-02T10:30:44;32.30;;;15.93;;
6642;SDS011;3357;48.050;7.800;2023-07-02T10:33:19;30.43;;;15.90;;
6642;SDS011;3357;48.050;7.800;2023-07-02T10:35:45;31.23;;;15.23;;
6642;SDS011;3357;48.050;7.800;2023-07-02T10:38:17;31.87;;;16.20;;
6642;SDS011;3357;48.050;7.800;2023-07-02T10:40:43;39.47;;;17.40;;
6642;SDS011;3357;48.050;7.800;2023-07-02T10:43:09;29.80;;;16.67;;
6642;SDS011;3357;48.050;7.800;2023-07-02T10:45:35;35.80;;;17.17;;
6642;SDS011;3357;48.050;7.800;2023-07-02T10:48:04;36.33;;;15.70;;
6642;SDS011;3357;48.050;7.800;2023-07-02T10:50:33;37.50;;;16.97;;
6642;SDS011;3357;48.050;7.800;2023-07-02T10:52:59;34.20;;;16.90;;
6642;SDS011;3357;48.050;7.800;2023-07-02T10:55:24;34.67;;;16.27;;
6642;SDS011;3357;48.050;7.800;2023-07-02T10:57:51;37.07;;;16.80;;
6642;SDS011;3357;48.050;7.800;2023-07-02T11:00:27;31.90;;;15.60;;
6642;SDS011;3357;48.050;7.800;2023-07-02T11:02:53;39.97;;;16.30;;
6642;SDS011;3357;48.050;7.800;2023-07-02T11:05:19;28.13;;;15.00;;
6642;SDS011;3357;48.050;7.800;2023-07-02T11:07:44;32.10;;;15.50;;
6642;SDS011;3357;48.050;7.800;2023-07-02T11:10:10;37.17;;;17.43;;
6642;SDS011;3357;48.050;7.800;2023-07-02T11:12:42;30.83;;;16.00;;
6642;SDS011;3357;48.050;7.800;2023-07-02T11:15:08;35.43;;;15.90;;
6642;SDS011;3357;48.050;7.800;2023-07-02T11:17:38;27.80;;;15.53;;
6642;SDS011;3357;48.050;7.800;2023-07-02T11:20:05;34.63;;;16.07;;
6642;SDS011;3357;48.050;7.800;2023-07-02T11:22:32;25.33;;;14.30;;
6642;SDS011;3357;48.050;7.800;2023-07-02T11:25:07;28.53;;;14.30;;
6642;SDS011;3357;48.050;7.800;2023-07-02T11:27:33;28.60;;;13.63;;
6642;SDS011;3357;48.050;7.800;2023-07-02T11:29:59;24.37;;;13.10;;
6642;SDS011;3357;48.050;7.800;2023-07-02T11:32:24;23.37;;;12.73;;
6642;SDS011;3357;48.050;7.800;2023-07-02T11:34:53;24.80;;;13.10;;
6642;SDS011;3357;48.050;7.800;2023-07-02T11:37:19;25.70;;;14.00;;
6642;SDS011;3357;48.050;7.800;2023-07-02T11:39:45;24.97;;;12.67;;
6642;SDS011;3357;48.050;7.800;2023-07-02T11:42:10;21.37;;;12.70;;
6642;SDS011;3357;48.050;7.800;2023-07-02T11:44:35;26.30;;;14.40;;
6642;SDS011;3357;48.050;7.800;2023-07-02T11:47:00;28.50;;;14.00;;
6642;SDS011;3357;48.050;7.800;2023-07-02T11:49:26;30.33;;;14.23;;
6642;SDS011;3357;48.050;7.800;2023-07-02T11:51:51;32.73;;;14.53;;
6642;SDS011;3357;48.050;7.800;2023-07-02T11:54:16;28.50;;;13.90;;
6642;SDS011;3357;48.050;7.800;2023-07-02T11:56:43;31.30;;;15.60;;
6642;SDS011;3357;48.050;7.800;2023-07-02T11:59:09;21.10;;;13.00;;
6642;SDS011;3357;48.050;7.800;2023-07-02T12:01:34;25.47;;;14.43;;
6642;SDS011;3357;48.050;7.800;2023-07-02T12:04:00;26.80;;;14.23;;
6642;SDS011;3357;48.050;7.800;2023-07-02T12:06:25;25.80;;;13.90;;
6642;SDS011;3357;48.050;7.800;2023-07-02T12:08:50;22.93;;;14.00;;
6642;SDS011;3357;48.050;7.800;2023-07-02T12:11:16;29.20;;;13.50;;
6642;SDS011;3357;48.050;7.800;2023-07-02T12:13:41;21.20;;;13.13;;
6642;SDS011;3357;48.050;7.800;2023-07-02T12:16:06;27.87;;;13.70;;
6642;SDS011;3357;48.050;7.800;2023-07-02T12:18:32;24.03;;;13.57;;
6642;SDS011;3357;48.050;7.800;2023-07-02T12:20:57;26.53;;;13.73;;
6642;SDS011;3357;48.050;7.800;2023-07-02T12:23:22;27.17;;;13.70;;
6642;SDS011;3357;48.050;7.800;2023-07-02T12:25:47;34.07;;;14.37;;
6642;SDS011;3357;48.050;7.800;2023-07-02T12:28:14;35.37;;;13.40;;
6642;SDS011;3357;48.050;7.800;2023-07-02T12:30:39;26.33;;;14.47;;
6642;SDS011;3357;48.050;7.800;2023-07-02T12:33:05;21.20;;;12.93;;
6642;SDS011;3357;48.050;7.800;2023-07-02T12:35:30;24.20;;;12.87;;
6642;SDS011;3357;48.050;7.800;2023-07-02T12:37:55;26.00;;;13.87;;
6642;SDS011;3357;48.050;7.800;2023-07-02T12:40:21;26.70;;;14.93;;
6642;SDS011;3357;48.050;7.800;2023-07-02T12:42:46;23.90;;;12.73;;
6642;SDS011;3357;48.050;7.800;2023-07-02T12:45:13;24.27;;;12.47;;
6642;SDS011;3357;48.050;7.800;2023-07-02T12:47:39;22.80;;;11.90;;
6642;SDS011;3357;48.050;7.800;2023-07-02T12:50:06;26.33;;;12.10;;
6642;SDS011;3357;48.050;7.800;2023-07-02T12:52:32;20.77;;;12.00;;
6642;SDS011;3357;48.050;7.800;2023-07-02T12:54:57;23.30;;;12.43;;
6642;SDS011;3357;48.050;7.800;2023-07-02T12:57:23;25.07;;;12.57;;
6642;SDS011;3357;48.050;7.800;2023-07-02T12:59:48;17.97;;;11.70;;
6642;SDS011;3357;48.050;7.800;2023-07-02T13:02:14;20.80;;;10.60;;
6642;SDS011;3357;48.050;7.800;2023-07-02T13:04:39;21.17;;;10.73;;
6642;SDS011;3357;48.050;7.800;2023-07-02T13:07:05;22.63;;;11.57;;
6642;SDS011;3357;48.050;7.800;2023-07-02T13:09:30;22.77;;;12.40;;
6642;SDS011;3357;48.050;7.800;2023-07-02T13:11:55;20.53;;;12.27;;
6642;SDS011;3357;48.050;7.800;2023-07-02T13:14:21;21.60;;;11.77;;
6642;SDS011;3357;48.050;7.800;2023-07-02T13:16:46;22.37;;;12.13;;
6642;SDS011;3357;48.050;7.800;2023-07-02T13:19:12;25.70;;;13.07;;
6642;SDS011;3357;48.050;7.800;2023-07-02T13:21:38;21.73;;;12.83;;
6642;SDS011;3357;48.050;7.800;2023-07-02T13:24:03;26.53;;;12.77;;
6642;SDS011;3357;48.050;7.800;2023-07-02T13:26:28;23.07;;;12.03;;
6642;SDS011;3357;48.050;7.800;2023-07-02T13:28:53;23.63;;;12.50;;
6642;SDS011;3357;48.050;7.800;2023-07-02T13:31:19;26.93;;;13.47;;
6642;SDS011;3357;48.050;7.800;2023-07-02T13:33:44;24.10;;;14.40;;
6642;SDS011;3357;48.050;7.800;2023-07-02T13:36:11;23.23;;;14.33;;
6642;SDS011;3357;48.050;7.800;2023-07-02T13:38:36;27.07;;;13.60;;
6642;SDS011;3357;48.050;7.800;2023-07-02T13:41:01;24.70;;;14.60;;
6642;SDS011;3357;48.050;7.800;2023-07-02T13:43:27;26.83;;;14.63;;
6642;SDS011;3357;48.050;7.800;2023-07-02T13:45:52;24.50;;;14.73;;
6642;SDS011;3357;48.050;7.800;2023-07-02T13:48:18;23.93;;;13.03;;
6642;SDS011;3357;48.050;7.800;2023-07-02T13:50:43;27.07;;;15.20;;
6642;SDS011;3357;48.050;7.800;2023-07-02T13:53:08;28.83;;;15.20;;
6642;SDS011;3357;48.050;7.800;2023-07-02T13:55:33;29.90;;;14.67;;
6642;SDS011;3357;48.050;7.800;2023-07-02T13:57:59;31.00;;;13.70;;
6642;SDS011;3357;48.050;7.800;2023-07-02T14:00:25;23.83;;;14.00;;
6642;SDS011;3357;48.050;7.800;2023-07-02T14:02:50;26.73;;;14.90;;
6642;SDS011;3357;48.050;7.800;2023-07-02T14:05:16;25.63;;;13.67;;
6642;SDS011;3357;48.050;7.800;2023-07-02T14:07:41;20.07;;;12.67;;
6642;SDS011;3357;48.050;7.800;2023-07-02T14:10:06;25.63;;;14.20;;
6642;SDS011;3357;48.050;7.800;2023-07-02T14:12:32;22.93;;;13.27;;
6642;SDS011;3357;48.050;7.800;2023-07-02T14:14:57;28.00;;;14.80;;
6642;SDS011;3357;48.050;7.800;2023-07-02T14:17:23;27.50;;;13.47;;
6642;SDS011;3357;48.050;7.800;2023-07-02T14:19:48;25.77;;;13.87;;
6642;SDS011;3357;48.050;7.800;2023-07-02T14:22:14;23.43;;;13.43;;
6642;SDS011;3357;48.050;7.800;2023-07-02T14:24:39;25.83;;;14.10;;
6642;SDS011;3357;48.050;7.800;2023-07-02T14:27:04;24.70;;;13.27;;
6642;SDS011;3357;48.050;7.800;2023-07-02T14:29:29;24.33;;;12.30;;
6642;SDS011;3357;48.050;7.800;2023-07-02T14:31:55;24.77;;;13.47;;
6642;SDS011;3357;48.050;7.800;2023-07-02T14:34:20;19.67;;;12.13;;
6642;SDS011;3357;48.050;7.800;2023-07-02T14:36:46;21.50;;;11.70;;
6642;SDS011;3357;48.050;7.800;2023-07-02T14:39:11;21.00;;;12.47;;
6642;SDS011;3357;48.050;7.800;2023-07-02T14:41:36;23.47;;;13.00;;
6642;SDS011;3357;48.050;7.800;2023-07-02T14:44:02;21.47;;;12.30;;
6642;SDS011;3357;48.050;7.800;2023-07-02T14:46:28;24.60;;;12.37;;
6642;SDS011;3357;48.050;7.800;2023-07-02T14:48:53;27.10;;;12.60;;
6642;SDS011;3357;48.050;7.800;2023-07-02T14:51:19;23.00;;;12.30;;
6642;SDS011;3357;48.050;7.800;2023-07-02T14:53:44;18.07;;;11.50;;
6642;SDS011;3357;48.050;7.800;2023-07-02T14:56:09;19.63;;;11.57;;
6642;SDS011;3357;48.050;7.800;2023-07-02T14:58:34;25.70;;;11.93;;
6642;SDS011;3357;48.050;7.800;2023-07-02T15:01:00;21.27;;;11.60;;
6642;SDS011;3357;48.050;7.800;2023-07-02T15:03:26;22.80;;;11.50;;
6642;SDS011;3357;48.050;7.800;2023-07-02T15:05:52;17.10;;;9.90;;